createdAt,value
2022-11-27T00:02:28.782Z,15.02
2022-11-27T00:07:33.483Z,15.05
2022-11-27T00:12:38.220Z,15.06
2022-11-27T00:17:41.954Z,15.08
2022-11-27T00:22:45.294Z,15.07
2022-11-27T00:27:49.408Z,15.04
2022-11-27T00:32:53.028Z,15.00
2022-11-27T00:37:56.279Z,14.98
2022-11-27T00:42:59.647Z,14.93
2022-11-27T00:48:03.200Z,14.87
2022-11-27T00:53:06.585Z,14.79
2022-11-27T00:58:09.654Z,14.77
2022-11-27T01:03:12.735Z,14.77
2022-11-27T01:08:16.201Z,14.79
2022-11-27T01:13:20.410Z,14.82
2022-11-27T01:18:24.422Z,14.86
2022-11-27T01:23:27.612Z,14.86
2022-11-27T01:28:32.391Z,14.87
2022-11-27T01:33:36.165Z,14.86
2022-11-27T01:38:39.675Z,14.86
2022-11-27T01:44:00.570Z,14.83
2022-11-27T01:49:29.525Z,14.85
2022-11-27T01:54:43.665Z,14.81
2022-11-27T01:59:49.374Z,14.84
2022-11-27T02:04:53.879Z,14.89
2022-11-27T02:09:57.286Z,14.95
2022-11-27T02:15:18.624Z,14.97
2022-11-27T02:20:41.539Z,15.00
2022-11-27T02:26:05.805Z,15.04
2022-11-27T02:31:26.073Z,15.04
2022-11-27T02:36:32.024Z,15.00
2022-11-27T02:41:49.708Z,15.02
2022-11-27T02:46:55.289Z,15.06
2022-11-27T02:52:01.360Z,15.08
2022-11-27T02:57:06.739Z,15.09
2022-11-27T03:02:15.342Z,15.11
2022-11-27T03:07:27.077Z,15.12
2022-11-27T03:12:30.668Z,15.04
2022-11-27T03:17:53.205Z,14.88
2022-11-27T03:22:57.976Z,14.65
2022-11-27T03:28:08.275Z,14.47
2022-11-27T03:33:12.115Z,14.39
2022-11-27T03:38:16.010Z,14.32
2022-11-27T03:43:24.998Z,14.25
2022-11-27T03:48:30.998Z,14.20
2022-11-27T03:53:40.608Z,14.16
2022-11-27T03:58:49.997Z,14.13
2022-11-27T04:03:54.004Z,14.08
2022-11-27T04:08:57.508Z,14.06
2022-11-27T04:14:00.872Z,14.00
2022-11-27T04:19:04.035Z,13.92
2022-11-27T04:24:07.794Z,13.84
2022-11-27T04:29:11.263Z,13.79
2022-11-27T04:34:14.611Z,13.73
2022-11-27T04:39:17.727Z,13.68
2022-11-27T04:44:20.655Z,13.68
2022-11-27T04:49:23.846Z,13.70
2022-11-27T04:54:27.281Z,13.73
2022-11-27T04:59:30.732Z,13.77
2022-11-27T05:04:33.946Z,13.83
2022-11-27T05:09:37.273Z,13.88
2022-11-27T05:14:41.359Z,13.91
2022-11-27T05:19:45.999Z,13.95
2022-11-27T05:24:50.291Z,13.95
2022-11-27T05:29:53.485Z,13.90
2022-11-27T05:34:56.436Z,13.86
2022-11-27T05:40:00.527Z,13.87
2022-11-27T05:45:06.880Z,13.86
2022-11-27T05:50:10.610Z,13.94
2022-11-27T05:55:14.130Z,14.00
2022-11-27T06:00:18.617Z,14.09
2022-11-27T06:05:21.872Z,14.07
2022-11-27T06:10:25.146Z,14.09
2022-11-27T06:15:28.753Z,14.18
2022-11-27T06:20:32.421Z,14.25
2022-11-27T06:25:36.093Z,14.40
2022-11-27T06:30:39.398Z,14.49
2022-11-27T06:35:42.322Z,14.49
2022-11-27T06:40:45.459Z,14.52
2022-11-27T06:45:56.766Z,14.60
2022-11-27T06:51:04.896Z,14.74
2022-11-27T06:56:15.272Z,14.95
2022-11-27T07:01:20.086Z,15.20
2022-11-27T07:06:28.924Z,15.43
2022-11-27T07:11:33.129Z,15.45
2022-11-27T07:16:37.440Z,15.44
2022-11-27T07:21:40.910Z,15.28
2022-11-27T07:26:44.433Z,15.23
2022-11-27T07:31:47.964Z,15.22
2022-11-27T07:36:52.813Z,15.46
2022-11-27T07:42:00.028Z,15.78
2022-11-27T07:47:06.284Z,16.00
2022-11-27T07:52:09.535Z,16.00
2022-11-27T07:57:12.822Z,16.02
2022-11-27T08:02:16.545Z,16.06
2022-11-27T08:07:20.080Z,16.05
2022-11-27T08:12:24.640Z,15.95
2022-11-27T08:17:28.204Z,16.00
2022-11-27T08:22:31.620Z,16.02
2022-11-27T08:27:34.930Z,16.15
2022-11-27T08:32:41.674Z,16.35
2022-11-27T08:37:47.041Z,16.48
2022-11-27T08:42:50.607Z,16.72
2022-11-27T08:47:55.093Z,16.87
2022-11-27T08:52:58.570Z,16.98
2022-11-27T08:58:02.259Z,17.07
2022-11-27T09:03:06.402Z,17.10
2022-11-27T09:08:09.746Z,17.08
2022-11-27T09:13:12.936Z,17.16
2022-11-27T09:18:16.264Z,17.20
2022-11-27T09:23:20.790Z,17.31
2022-11-27T09:28:28.207Z,17.45
2022-11-27T09:33:38.588Z,17.57
2022-11-27T09:38:42.213Z,17.48
2022-11-27T09:43:55.236Z,17.52
2022-11-27T09:49:00.958Z,17.67
2022-11-27T09:54:27.180Z,17.66
2022-11-27T09:59:45.690Z,17.70
2022-11-27T10:05:12.942Z,17.69
2022-11-27T10:10:18.098Z,17.67
2022-11-27T10:15:37.593Z,17.63
2022-11-27T10:20:43.327Z,17.67
2022-11-27T10:25:55.128Z,17.65
2022-11-27T10:31:12.928Z,17.51
2022-11-27T10:36:24.588Z,17.44
2022-11-27T10:42:03.254Z,17.44
2022-11-27T10:47:10.875Z,17.44
2022-11-27T10:52:17.035Z,17.48
2022-11-27T10:57:47.569Z,17.44
2022-11-27T11:03:03.212Z,17.46
2022-11-27T11:08:16.556Z,17.58
2022-11-27T11:13:24.457Z,17.51
2022-11-27T11:18:41.776Z,17.45
2022-11-27T11:23:57.722Z,17.55
2022-11-27T11:29:05.212Z,17.56
2022-11-27T11:34:30.001Z,17.56
2022-11-27T11:39:45.808Z,17.68
2022-11-27T11:44:55.401Z,17.60
2022-11-27T11:49:59.305Z,17.50
2022-11-27T11:55:26.270Z,17.50
2022-11-27T12:00:58.412Z,17.58
2022-11-27T12:06:25.814Z,17.55
2022-11-27T12:11:57.930Z,17.38
2022-11-27T12:17:21.580Z,17.37
2022-11-27T12:22:41.200Z,17.29
2022-11-27T12:28:02.979Z,17.24
2022-11-27T12:33:24.176Z,17.18
2022-11-27T12:39:05.665Z,17.17
2022-11-27T12:44:22.935Z,17.22
2022-11-27T12:49:43.973Z,17.25
2022-11-27T12:54:58.192Z,17.25
2022-11-27T13:00:24.980Z,17.16
2022-11-27T13:05:42.109Z,17.12
2022-11-27T13:10:55.979Z,17.10
2022-11-27T13:16:10.405Z,17.07
2022-11-27T13:21:18.853Z,17.06
2022-11-27T13:26:35.429Z,17.01
2022-11-27T13:31:39.363Z,16.95
2022-11-27T13:36:46.836Z,16.94
2022-11-27T13:42:11.757Z,16.92
2022-11-27T13:47:19.611Z,16.93
2022-11-27T13:52:23.294Z,16.90
2022-11-27T13:57:28.355Z,16.83
2022-11-27T14:02:47.413Z,16.76
2022-11-27T14:07:56.433Z,16.73
2022-11-27T14:13:04.038Z,16.70
2022-11-27T14:18:21.223Z,16.68
2022-11-27T14:23:50.270Z,16.67
2022-11-27T14:28:56.467Z,16.64
2022-11-27T14:34:14.857Z,16.63
2022-11-27T14:39:30.180Z,16.64
2022-11-27T14:44:34.076Z,16.65
2022-11-27T14:49:37.512Z,16.67
2022-11-27T14:54:42.396Z,16.66
2022-11-27T14:59:45.762Z,16.65
2022-11-27T15:04:49.211Z,16.64
2022-11-27T15:09:59.221Z,16.62
2022-11-27T15:15:09.993Z,16.60
2022-11-27T15:20:23.883Z,16.56
2022-11-27T15:25:40.198Z,16.51
2022-11-27T15:30:46.922Z,16.48
2022-11-27T15:35:53.900Z,16.44
2022-11-27T15:41:00.576Z,16.37
2022-11-27T15:46:07.414Z,16.40
2022-11-27T15:51:10.772Z,16.37
2022-11-27T15:56:14.793Z,16.39
2022-11-27T16:01:18.511Z,16.38
2022-11-27T16:06:22.318Z,16.37
2022-11-27T16:11:26.940Z,16.36
2022-11-27T16:16:30.512Z,16.34
2022-11-27T16:21:35.448Z,16.31
2022-11-27T16:26:39.083Z,16.30
2022-11-27T16:31:42.473Z,16.26
2022-11-27T16:36:46.518Z,16.28
2022-11-27T16:41:51.471Z,16.29
2022-11-27T16:46:56.417Z,16.28
2022-11-27T16:52:00.346Z,16.29
2022-11-27T16:57:05.004Z,16.28
2022-11-27T17:02:10.312Z,16.24
2022-11-27T17:07:13.954Z,16.20
2022-11-27T17:12:17.500Z,16.20
2022-11-27T17:17:21.123Z,16.25
2022-11-27T17:22:24.562Z,16.25
2022-11-27T17:27:29.013Z,16.29
2022-11-27T17:32:32.339Z,16.32
2022-11-27T17:37:35.683Z,16.35
2022-11-27T17:42:39.082Z,16.37
2022-11-27T17:47:42.535Z,16.36
2022-11-27T17:52:46.133Z,16.39
2022-11-27T17:57:49.494Z,16.40
2022-11-27T18:02:54.146Z,16.40
2022-11-27T18:07:59.434Z,16.40
2022-11-27T18:16:45.143Z,16.45
2022-11-27T18:21:48.665Z,16.49
2022-11-27T18:27:09.147Z,16.52
2022-11-27T18:32:14.945Z,16.53
2022-11-27T18:37:21.090Z,16.56
2022-11-27T18:42:25.559Z,16.56
2022-11-27T18:47:30.613Z,16.56
2022-11-27T18:52:34.147Z,16.56
2022-11-27T18:57:38.614Z,16.57
2022-11-27T19:02:42.279Z,16.59
2022-11-27T19:07:48.239Z,16.63
2022-11-27T19:12:51.634Z,16.72
2022-11-27T19:17:56.644Z,16.75
2022-11-27T19:23:00.231Z,16.79
2022-11-27T19:28:11.366Z,16.84
2022-11-27T19:33:14.657Z,16.87
2022-11-27T19:38:18.327Z,16.88
2022-11-27T19:43:23.311Z,16.90
2022-11-27T19:48:26.650Z,16.93
2022-11-27T19:53:30.231Z,16.97
2022-11-27T19:58:34.240Z,16.94
2022-11-27T20:03:38.541Z,16.94
2022-11-27T20:08:45.696Z,16.94
2022-11-27T20:13:49.705Z,16.94
2022-11-27T20:18:54.421Z,16.93
2022-11-27T20:24:00.213Z,16.93
2022-11-27T20:29:04.653Z,16.92
2022-11-27T20:34:15.261Z,16.90
2022-11-27T20:39:21.824Z,16.88
2022-11-27T20:44:26.802Z,16.80
2022-11-27T20:49:30.287Z,16.78
2022-11-27T20:54:36.310Z,16.71
2022-11-27T20:59:43.472Z,16.69
2022-11-27T21:04:47.589Z,16.68
2022-11-27T21:09:52.150Z,16.64
2022-11-27T21:14:55.663Z,16.61
2022-11-27T21:19:59.916Z,16.57
2022-11-27T21:25:03.511Z,16.58
2022-11-27T21:30:07.860Z,16.56
2022-11-27T21:35:11.340Z,16.56
2022-11-27T21:40:16.787Z,16.52
2022-11-27T21:45:20.095Z,16.48
2022-11-27T21:50:24.570Z,16.41
2022-11-27T21:55:30.443Z,16.37
2022-11-27T22:00:34.068Z,16.33
2022-11-27T22:05:37.535Z,16.27
2022-11-27T22:10:42.133Z,16.21
2022-11-27T22:15:45.846Z,16.13
2022-11-27T22:20:50.462Z,16.08
2022-11-27T22:25:53.805Z,16.05
2022-11-27T22:31:03.588Z,16.07
2022-11-27T22:36:28.782Z,16.07
2022-11-27T22:41:36.647Z,16.05
2022-11-27T22:46:42.819Z,16.02
2022-11-27T22:51:47.335Z,16.02
2022-11-27T22:56:51.857Z,16.00
2022-11-27T23:01:56.589Z,16.01
2022-11-27T23:07:01.098Z,16.03
2022-11-27T23:12:05.235Z,16.06
2022-11-27T23:17:08.809Z,16.07
2022-11-27T23:22:12.133Z,16.07
2022-11-27T23:27:15.470Z,16.10
2022-11-27T23:32:18.911Z,16.17
2022-11-27T23:37:22.189Z,16.21
2022-11-27T23:42:25.529Z,16.23
2022-11-27T23:47:28.902Z,16.25
2022-11-27T23:52:33.223Z,16.28
2022-11-27T23:57:36.473Z,16.26
